sensor_id;sensor_type;location;lat;lon;timestamp;pressure;altitude;pressure_sealevel;temperature
32039;BMP280;18549;42.286;22.688;2023-04-03T00:02:09;95021.66;;;14.45
32039;BMP280;18549;42.286;22.688;2023-04-03T00:04:36;95019.41;;;14.42
32039;BMP280;18549;42.286;22.688;2023-04-03T00:07:02;95010.41;;;14.22
32039;BMP280;18549;42.286;22.688;2023-04-03T00:09:29;95010.66;;;14.19
32039;BMP280;18549;42.286;22.688;2023-04-03T00:11:58;95009.97;;;14.17
32039;BMP280;18549;42.286;22.688;2023-04-03T00:14:26;95012.22;;;14.20
32039;BMP280;18549;42.286;22.688;2023-04-03T00:16:52;95009.88;;;14.18
32039;BMP280;18549;42.286;22.688;2023-04-03T00:19:19;94998.47;;;14.16
32039;BMP280;18549;42.286;22.688;2023-04-03T00:21:46;95000.94;;;14.16
32039;BMP280;18549;42.286;22.688;2023-04-03T00:24:13;94990.97;;;14.16
32039;BMP280;18549;42.286;22.688;2023-04-03T00:26:40;95000.16;;;14.16
32039;BMP280;18549;42.286;22.688;2023-04-03T00:29:08;94991.25;;;14.13
32039;BMP280;18549;42.286;22.688;2023-04-03T00:31:35;94997.03;;;14.14
32039;BMP280;18549;42.286;22.688;2023-04-03T00:34:02;94997.28;;;14.11
32039;BMP280;18549;42.286;22.688;2023-04-03T00:36:29;94993.59;;;14.05
32039;BMP280;18549;42.286;22.688;2023-04-03T00:38:55;94997.81;;;14.05
32039;BMP280;18549;42.286;22.688;2023-04-03T00:41:22;94999.13;;;13.99
32039;BMP280;18549;42.286;22.688;2023-04-03T00:43:49;94994.16;;;13.99
32039;BMP280;18549;42.286;22.688;2023-04-03T00:46:17;95006.16;;;13.94
32039;BMP280;18549;42.286;22.688;2023-04-03T00:48:46;95006.56;;;13.90
32039;BMP280;18549;42.286;22.688;2023-04-03T00:51:15;95015.59;;;13.82
32039;BMP280;18549;42.286;22.688;2023-04-03T00:53:44;95006.28;;;13.74
32039;BMP280;18549;42.286;22.688;2023-04-03T00:56:14;95004.84;;;13.72
32039;BMP280;18549;42.286;22.688;2023-04-03T00:58:46;95009.44;;;13.76
32039;BMP280;18549;42.286;22.688;2023-04-03T01:01:20;95016.25;;;13.65
32039;BMP280;18549;42.286;22.688;2023-04-03T01:03:48;95014.25;;;13.59
32039;BMP280;18549;42.286;22.688;2023-04-03T01:06:17;95015.19;;;13.58
32039;BMP280;18549;42.286;22.688;2023-04-03T01:08:48;95008.34;;;13.60
32039;BMP280;18549;42.286;22.688;2023-04-03T01:11:17;95014.66;;;13.64
32039;BMP280;18549;42.286;22.688;2023-04-03T01:13:43;95017.16;;;13.64
32039;BMP280;18549;42.286;22.688;2023-04-03T01:16:10;95015.59;;;13.63
32039;BMP280;18549;42.286;22.688;2023-04-03T01:18:40;95015.81;;;13.60
32039;BMP280;18549;42.286;22.688;2023-04-03T01:24:32;95008.50;;;13.49
32039;BMP280;18549;42.286;22.688;2023-04-03T01:27:03;95009.09;;;13.42
32039;BMP280;18549;42.286;22.688;2023-04-03T01:29:31;95008.06;;;13.44
32039;BMP280;18549;42.286;22.688;2023-04-03T01:32:00;95011.22;;;13.46
32039;BMP280;18549;42.286;22.688;2023-04-03T01:34:28;95003.59;;;13.38
32039;BMP280;18549;42.286;22.688;2023-04-03T01:36:56;95006.09;;;13.38
32039;BMP280;18549;42.286;22.688;2023-04-03T01:39:23;95000.44;;;13.27
32039;BMP280;18549;42.286;22.688;2023-04-03T01:41:50;95000.03;;;13.22
32039;BMP280;18549;42.286;22.688;2023-04-03T01:44:16;95008.28;;;13.22
32039;BMP280;18549;42.286;22.688;2023-04-03T01:46:43;95009.69;;;13.16
32039;BMP280;18549;42.286;22.688;2023-04-03T01:49:11;95008.34;;;13.02
32039;BMP280;18549;42.286;22.688;2023-04-03T01:51:38;95009.37;;;13.00
32039;BMP280;18549;42.286;22.688;2023-04-03T01:54:05;95002.16;;;12.97
32039;BMP280;18549;42.286;22.688;2023-04-03T01:56:32;95005.19;;;13.00
32039;BMP280;18549;42.286;22.688;2023-04-03T01:58:58;95005.31;;;12.99
32039;BMP280;18549;42.286;22.688;2023-04-03T02:01:25;95001.78;;;13.01
32039;BMP280;18549;42.286;22.688;2023-04-03T02:03:52;95002.56;;;13.02
32039;BMP280;18549;42.286;22.688;2023-04-03T02:06:20;94999.91;;;12.94
32039;BMP280;18549;42.286;22.688;2023-04-03T02:08:47;94992.50;;;12.74
32039;BMP280;18549;42.286;22.688;2023-04-03T02:11:14;94997.94;;;12.68
32039;BMP280;18549;42.286;22.688;2023-04-03T02:13:42;95000.44;;;12.68
32039;BMP280;18549;42.286;22.688;2023-04-03T02:16:10;95003.94;;;12.65
32039;BMP280;18549;42.286;22.688;2023-04-03T02:18:38;95004.47;;;12.69
32039;BMP280;18549;42.286;22.688;2023-04-03T02:21:05;95005.03;;;12.72
32039;BMP280;18549;42.286;22.688;2023-04-03T02:23:33;94995.75;;;12.74
32039;BMP280;18549;42.286;22.688;2023-04-03T02:26:06;94997.12;;;12.78
32039;BMP280;18549;42.286;22.688;2023-04-03T02:28:33;94993.59;;;12.81
32039;BMP280;18549;42.286;22.688;2023-04-03T02:31:00;94991.63;;;12.84
32039;BMP280;18549;42.286;22.688;2023-04-03T02:33:27;94988.88;;;12.87
32039;BMP280;18549;42.286;22.688;2023-04-03T02:35:54;94980.53;;;12.88
32039;BMP280;18549;42.286;22.688;2023-04-03T02:38:22;94985.25;;;12.91
32039;BMP280;18549;42.286;22.688;2023-04-03T02:40:50;94978.81;;;12.88
32039;BMP280;18549;42.286;22.688;2023-04-03T02:43:17;94981.31;;;12.88
32039;BMP280;18549;42.286;22.688;2023-04-03T02:45:44;94973.75;;;12.90
32039;BMP280;18549;42.286;22.688;2023-04-03T02:48:11;94973.75;;;12.90
32039;BMP280;18549;42.286;22.688;2023-04-03T02:50:40;94967.97;;;12.89
32039;BMP280;18549;42.286;22.688;2023-04-03T02:53:07;94967.97;;;12.89
32039;BMP280;18549;42.286;22.688;2023-04-03T02:55:34;94973.75;;;12.90
32039;BMP280;18549;42.286;22.688;2023-04-03T02:58:02;94963.13;;;12.88
32039;BMP280;18549;42.286;22.688;2023-04-03T03:00:30;94962.56;;;12.85
32039;BMP280;18549;42.286;22.688;2023-04-03T03:02:57;94967.03;;;12.81
32039;BMP280;18549;42.286;22.688;2023-04-03T03:05:23;94961.28;;;12.60
32039;BMP280;18549;42.286;22.688;2023-04-03T03:07:50;94959.94;;;12.56
32039;BMP280;18549;42.286;22.688;2023-04-03T03:10:17;94957.19;;;12.59
32039;BMP280;18549;42.286;22.688;2023-04-03T03:12:44;94958.66;;;12.62
32039;BMP280;18549;42.286;22.688;2023-04-03T03:15:15;94951.19;;;12.62
32039;BMP280;18549;42.286;22.688;2023-04-03T03:17:44;94953.16;;;12.58
32039;BMP280;18549;42.286;22.688;2023-04-03T03:20:13;94951.34;;;12.60
32039;BMP280;18549;42.286;22.688;2023-04-03T03:22:40;94948.84;;;12.60
32039;BMP280;18549;42.286;22.688;2023-04-03T03:25:08;94952.22;;;12.59
32039;BMP280;18549;42.286;22.688;2023-04-03T03:27:35;94941.47;;;12.50
32039;BMP280;18549;42.286;22.688;2023-04-03T03:30:02;94954.94;;;12.47
32039;BMP280;18549;42.286;22.688;2023-04-03T03:32:30;94952.34;;;12.49
32039;BMP280;18549;42.286;22.688;2023-04-03T03:34:57;94945.09;;;12.46
32039;BMP280;18549;42.286;22.688;2023-04-03T03:37:24;94968.34;;;12.35
32039;BMP280;18549;42.286;22.688;2023-04-03T03:39:51;94967.62;;;12.24
32039;BMP280;18549;42.286;22.688;2023-04-03T03:42:18;94978.28;;;12.15
32039;BMP280;18549;42.286;22.688;2023-04-03T03:44:44;94975.22;;;12.12
32039;BMP280;18549;42.286;22.688;2023-04-03T03:47:11;94970.03;;;12.15
32039;BMP280;18549;42.286;22.688;2023-04-03T03:49:39;94962.03;;;12.11
32039;BMP280;18549;42.286;22.688;2023-04-03T03:52:07;94960.88;;;12.15
32039;BMP280;18549;42.286;22.688;2023-04-03T03:54:35;94958.72;;;12.21
32039;BMP280;18549;42.286;22.688;2023-04-03T03:57:02;94962.91;;;12.21
32039;BMP280;18549;42.286;22.688;2023-04-03T03:59:29;94970.09;;;12.24
32039;BMP280;18549;42.286;22.688;2023-04-03T04:01:56;94975.75;;;12.26
32039;BMP280;18549;42.286;22.688;2023-04-03T04:04:23;94972.34;;;12.27
32039;BMP280;18549;42.286;22.688;2023-04-03T04:06:51;94973.94;;;12.28
32039;BMP280;18549;42.286;22.688;2023-04-03T04:09:18;94969.19;;;12.25
32039;BMP280;18549;42.286;22.688;2023-04-03T04:11:45;94970.56;;;12.18
32039;BMP280;18549;42.286;22.688;2023-04-03T04:14:11;94965.19;;;12.13
32039;BMP280;18549;42.286;22.688;2023-04-03T04:16:39;94964.78;;;12.08
32039;BMP280;18549;42.286;22.688;2023-04-03T04:19:05;94974.69;;;12.08
32039;BMP280;18549;42.286;22.688;2023-04-03T04:21:33;94984.22;;;12.03
32039;BMP280;18549;42.286;22.688;2023-04-03T04:24:02;94988.50;;;12.01
32039;BMP280;18549;42.286;22.688;2023-04-03T04:26:29;94982.75;;;12.01
32039;BMP280;18549;42.286;22.688;2023-04-03T04:28:55;94988.00;;;12.07
32039;BMP280;18549;42.286;22.688;2023-04-03T04:31:22;94990.75;;;12.04
32039;BMP280;18549;42.286;22.688;2023-04-03T04:33:49;94994.81;;;12.05
32039;BMP280;18549;42.286;22.688;2023-04-03T04:36:16;95006.22;;;12.08
32039;BMP280;18549;42.286;22.688;2023-04-03T04:38:43;95005.41;;;12.07
32039;BMP280;18549;42.286;22.688;2023-04-03T04:41:11;94998.63;;;12.09
32039;BMP280;18549;42.286;22.688;2023-04-03T04:43:38;95006.06;;;12.09
32039;BMP280;18549;42.286;22.688;2023-04-03T04:46:06;95006.88;;;12.10
32039;BMP280;18549;42.286;22.688;2023-04-03T04:48:34;95000.22;;;12.10
32039;BMP280;18549;42.286;22.688;2023-04-03T04:51:01;95001.53;;;12.14
32039;BMP280;18549;42.286;22.688;2023-04-03T04:53:28;94996.81;;;12.11
32039;BMP280;18549;42.286;22.688;2023-04-03T04:55:55;94990.28;;;12.10
32039;BMP280;18549;42.286;22.688;2023-04-03T04:58:25;94985.97;;;12.12
32039;BMP280;18549;42.286;22.688;2023-04-03T05:00:58;94981.91;;;12.11
32039;BMP280;18549;42.286;22.688;2023-04-03T05:03:25;94991.41;;;12.06
32039;BMP280;18549;42.286;22.688;2023-04-03T05:05:52;94992.69;;;12.01
32039;BMP280;18549;42.286;22.688;2023-04-03T05:08:19;95009.06;;;12.03
32039;BMP280;18549;42.286;22.688;2023-04-03T05:10:46;95002.50;;;12.02
32039;BMP280;18549;42.286;22.688;2023-04-03T05:13:14;95009.41;;;11.99
32039;BMP280;18549;42.286;22.688;2023-04-03T05:15:42;95004.56;;;11.97
32039;BMP280;18549;42.286;22.688;2023-04-03T05:18:09;95000.72;;;11.93
32039;BMP280;18549;42.286;22.688;2023-04-03T05:20:36;94998.97;;;11.85
32039;BMP280;18549;42.286;22.688;2023-04-03T05:23:03;95003.13;;;11.84
32039;BMP280;18549;42.286;22.688;2023-04-03T05:25:32;94996.25;;;11.87
32039;BMP280;18549;42.286;22.688;2023-04-03T05:27:58;94992.31;;;11.85
32039;BMP280;18549;42.286;22.688;2023-04-03T05:30:25;94991.03;;;11.90
32039;BMP280;18549;42.286;22.688;2023-04-03T05:32:53;94985.59;;;11.96
32039;BMP280;18549;42.286;22.688;2023-04-03T05:35:21;94982.88;;;11.99
32039;BMP280;18549;42.286;22.688;2023-04-03T05:37:48;94983.28;;;12.04
32039;BMP280;18549;42.286;22.688;2023-04-03T05:40:15;94970.28;;;12.12
32039;BMP280;18549;42.286;22.688;2023-04-03T05:42:42;94981.19;;;12.20
32039;BMP280;18549;42.286;22.688;2023-04-03T05:45:10;94979.38;;;12.22
32039;BMP280;18549;42.286;22.688;2023-04-03T05:47:36;94975.75;;;12.26
32039;BMP280;18549;42.286;22.688;2023-04-03T05:50:05;94974.56;;;12.30
32039;BMP280;18549;42.286;22.688;2023-04-03T05:52:35;94967.56;;;12.35
32039;BMP280;18549;42.286;22.688;2023-04-03T05:55:03;94970.03;;;12.35
32039;BMP280;18549;42.286;22.688;2023-04-03T05:57:30;94983.09;;;12.37
32039;BMP280;18549;42.286;22.688;2023-04-03T05:59:57;94983.66;;;12.40
32039;BMP280;18549;42.286;22.688;2023-04-03T06:02:24;94982.88;;;12.40
32039;BMP280;18549;42.286;22.688;2023-04-03T06:04:51;94991.00;;;12.42
32039;BMP280;18549;42.286;22.688;2023-04-03T06:07:22;94983.56;;;12.42
32039;BMP280;18549;42.286;22.688;2023-04-03T06:09:50;94971.41;;;12.48
32039;BMP280;18549;42.286;22.688;2023-04-03T06:12:18;94971.28;;;12.50
32039;BMP280;18549;42.286;22.688;2023-04-03T06:14:45;94976.00;;;12.52
32039;BMP280;18549;42.286;22.688;2023-04-03T06:17:14;94984.28;;;12.53
32039;BMP280;18549;42.286;22.688;2023-04-03T06:19:43;94966.62;;;12.56
32039;BMP280;18549;42.286;22.688;2023-04-03T06:22:10;94965.66;;;12.48
32039;BMP280;18549;42.286;22.688;2023-04-03T06:24:39;94976.00;;;12.52
32039;BMP280;18549;42.286;22.688;2023-04-03T06:27:06;94971.03;;;12.52
32039;BMP280;18549;42.286;22.688;2023-04-03T06:29:32;94969.53;;;12.61
32039;BMP280;18549;42.286;22.688;2023-04-03T06:31:59;94976.41;;;12.57
32039;BMP280;18549;42.286;22.688;2023-04-03T06:34:26;94976.00;;;12.52
32039;BMP280;18549;42.286;22.688;2023-04-03T06:36:53;94966.06;;;12.52
32039;BMP280;18549;42.286;22.688;2023-04-03T06:39:21;94975.12;;;12.53
32039;BMP280;18549;42.286;22.688;2023-04-03T06:41:50;94974.56;;;12.50
32039;BMP280;18549;42.286;22.688;2023-04-03T06:44:17;94977.91;;;12.40
32039;BMP280;18549;42.286;22.688;2023-04-03T06:46:44;94990.16;;;12.32
32039;BMP280;18549;42.286;22.688;2023-04-03T06:49:12;94981.75;;;12.23
32039;BMP280;18549;42.286;22.688;2023-04-03T06:51:39;94972.03;;;12.20
32039;BMP280;18549;42.286;22.688;2023-04-03T06:54:06;94977.13;;;12.19
32039;BMP280;18549;42.286;22.688;2023-04-03T06:56:33;94988.47;;;12.12
32039;BMP280;18549;42.286;22.688;2023-04-03T06:59:02;94986.56;;;12.05
32039;BMP280;18549;42.286;22.688;2023-04-03T07:01:29;94979.16;;;12.14
32039;BMP280;18549;42.286;22.688;2023-04-03T07:03:57;94980.03;;;12.24
32039;BMP280;18549;42.286;22.688;2023-04-03T07:06:24;94973.16;;;12.37
32039;BMP280;18549;42.286;22.688;2023-04-03T07:08:52;94970.47;;;12.40
32039;BMP280;18549;42.286;22.688;2023-04-03T07:11:19;94969.47;;;12.52
32039;BMP280;18549;42.286;22.688;2023-04-03T07:13:47;94963.87;;;12.59
32039;BMP280;18549;42.286;22.688;2023-04-03T07:16:16;94952.53;;;12.66
32039;BMP280;18549;42.286;22.688;2023-04-03T07:18:43;94954.28;;;12.75
32039;BMP280;18549;42.286;22.688;2023-04-03T07:21:10;94941.00;;;12.85
32039;BMP280;18549;42.286;22.688;2023-04-03T07:23:37;94934.84;;;12.89
32039;BMP280;18549;42.286;22.688;2023-04-03T07:26:04;94933.56;;;12.94
32039;BMP280;18549;42.286;22.688;2023-04-03T07:28:31;94930.44;;;13.02
32039;BMP280;18549;42.286;22.688;2023-04-03T07:31:00;94925.19;;;13.05
32039;BMP280;18549;42.286;22.688;2023-04-03T07:33:30;94917.25;;;13.11
32039;BMP280;18549;42.286;22.688;2023-04-03T07:35:57;94917.13;;;13.21
32039;BMP280;18549;42.286;22.688;2023-04-03T07:38:25;94913.59;;;13.24
32039;BMP280;18549;42.286;22.688;2023-04-03T07:40:52;94915.16;;;13.16
32039;BMP280;18549;42.286;22.688;2023-04-03T07:43:21;94911.22;;;13.22
32039;BMP280;18549;42.286;22.688;2023-04-03T07:45:49;94913.62;;;13.33
32039;BMP280;18549;42.286;22.688;2023-04-03T07:48:17;94914.66;;;13.40
32039;BMP280;18549;42.286;22.688;2023-04-03T07:50:46;94906.66;;;13.46
32039;BMP280;18549;42.286;22.688;2023-04-03T07:53:13;94906.81;;;13.54
32039;BMP280;18549;42.286;22.688;2023-04-03T07:55:40;94904.72;;;13.59
32039;BMP280;18549;42.286;22.688;2023-04-03T07:58:10;94904.31;;;13.63
32039;BMP280;18549;42.286;22.688;2023-04-03T08:00:37;94900.00;;;13.75
32039;BMP280;18549;42.286;22.688;2023-04-03T08:03:05;94897.59;;;13.83
32039;BMP280;18549;42.286;22.688;2023-04-03T08:05:36;94898.94;;;13.86
32039;BMP280;18549;42.286;22.688;2023-04-03T08:08:05;94901.41;;;13.86
32039;BMP280;18549;42.286;22.688;2023-04-03T08:10:33;94900.91;;;13.92
32039;BMP280;18549;42.286;22.688;2023-04-03T08:13:00;94895.50;;;13.97
32039;BMP280;18549;42.286;22.688;2023-04-03T08:15:27;94890.78;;;14.03
32039;BMP280;18549;42.286;22.688;2023-04-03T08:17:54;94880.03;;;14.12
32039;BMP280;18549;42.286;22.688;2023-04-03T08:20:21;94879.66;;;14.07
32039;BMP280;18549;42.286;22.688;2023-04-03T08:22:49;94871.37;;;14.16
32039;BMP280;18549;42.286;22.688;2023-04-03T08:25:18;94873.84;;;14.16
32039;BMP280;18549;42.286;22.688;2023-04-03T08:27:44;94863.84;;;14.25
32039;BMP280;18549;42.286;22.688;2023-04-03T08:30:12;94860.69;;;14.33
32039;BMP280;18549;42.286;22.688;2023-04-03T08:32:39;94859.84;;;14.42
32039;BMP280;18549;42.286;22.688;2023-04-03T08:35:07;94849.47;;;14.46
32039;BMP280;18549;42.286;22.688;2023-04-03T08:37:35;94853.38;;;14.22
32039;BMP280;18549;42.286;22.688;2023-04-03T08:40:03;94854.31;;;14.12
32039;BMP280;18549;42.286;22.688;2023-04-03T08:42:39;94851.28;;;14.27
32039;BMP280;18549;42.286;22.688;2023-04-03T08:45:10;94850.66;;;14.42
32039;BMP280;18549;42.286;22.688;2023-04-03T08:47:44;94860.06;;;14.57
32039;BMP280;18549;42.286;22.688;2023-04-03T08:50:15;94852.94;;;14.62
32039;BMP280;18549;42.286;22.688;2023-04-03T08:52:46;94843.19;;;14.69
32039;BMP280;18549;42.286;22.688;2023-04-03T08:55:22;94840.81;;;14.77
32039;BMP280;18549;42.286;22.688;2023-04-03T08:57:58;94839.75;;;14.79
32039;BMP280;18549;42.286;22.688;2023-04-03T09:00:30;94847.84;;;14.81
32039;BMP280;18549;42.286;22.688;2023-04-03T09:02:57;94842.19;;;14.88
32039;BMP280;18549;42.286;22.688;2023-04-03T09:05:32;94846.09;;;14.91
32039;BMP280;18549;42.286;22.688;2023-04-03T09:08:06;94839.09;;;14.94
32039;BMP280;18549;42.286;22.688;2023-04-03T09:10:37;94834.53;;;14.90
32039;BMP280;18549;42.286;22.688;2023-04-03T09:13:12;94835.38;;;14.81
32039;BMP280;18549;42.286;22.688;2023-04-03T09:15:40;94833.87;;;14.88
32039;BMP280;18549;42.286;22.688;2023-04-03T09:18:13;94825.22;;;14.92
32039;BMP280;18549;42.286;22.688;2023-04-03T09:20:46;94816.94;;;14.91
32039;BMP280;18549;42.286;22.688;2023-04-03T09:23:24;94827.44;;;14.95
32039;BMP280;18549;42.286;22.688;2023-04-03T09:25:56;94810.25;;;14.92
32039;BMP280;18549;42.286;22.688;2023-04-03T09:28:26;94808.16;;;14.87
32039;BMP280;18549;42.286;22.688;2023-04-03T09:30:53;94803.34;;;14.86
32039;BMP280;18549;42.286;22.688;2023-04-03T09:33:21;94795.44;;;14.90
32039;BMP280;18549;42.286;22.688;2023-04-03T09:35:48;94783.38;;;14.86
32039;BMP280;18549;42.286;22.688;2023-04-03T09:38:19;94786.34;;;14.89
32039;BMP280;18549;42.286;22.688;2023-04-03T09:40:48;94783.72;;;14.91
32039;BMP280;18549;42.286;22.688;2023-04-03T09:43:28;94789.06;;;14.96
32039;BMP280;18549;42.286;22.688;2023-04-03T09:45:56;94781.38;;;14.72
32039;BMP280;18549;42.286;22.688;2023-04-03T09:48:50;94786.00;;;14.84
32039;BMP280;18549;42.286;22.688;2023-04-03T09:51:16;94784.66;;;14.90
32039;BMP280;18549;42.286;22.688;2023-04-03T09:53:44;94788.44;;;14.94
32039;BMP280;18549;42.286;22.688;2023-04-03T09:56:20;94790.06;;;14.85
32039;BMP280;18549;42.286;22.688;2023-04-03T09:58:51;94782.94;;;14.90
32039;BMP280;18549;42.286;22.688;2023-04-03T10:01:25;94783.97;;;14.97
32039;BMP280;18549;42.286;22.688;2023-04-03T10:04:06;94782.06;;;14.99
32039;BMP280;18549;42.286;22.688;2023-04-03T10:06:35;94776.03;;;15.02
32039;BMP280;18549;42.286;22.688;2023-04-03T10:09:04;94772.59;;;15.03
32039;BMP280;18549;42.286;22.688;2023-04-03T10:11:33;94752.94;;;15.00
32039;BMP280;18549;42.286;22.688;2023-04-03T10:14:02;94759.50;;;15.01
32039;BMP280;18549;42.286;22.688;2023-04-03T10:16:35;94754.16;;;14.96
32039;BMP280;18549;42.286;22.688;2023-04-03T10:19:23;94744.72;;;14.90
32039;BMP280;18549;42.286;22.688;2023-04-03T10:21:59;94746.56;;;14.88
32039;BMP280;18549;42.286;22.688;2023-04-03T10:24:34;94752.38;;;14.88
32039;BMP280;18549;42.286;22.688;2023-04-03T10:27:09;94748.38;;;14.95
32039;BMP280;18549;42.286;22.688;2023-04-03T10:29:46;94749.84;;;15.06
32039;BMP280;18549;42.286;22.688;2023-04-03T10:32:30;94743.66;;;15.10
32039;BMP280;18549;42.286;22.688;2023-04-03T10:35:08;94744.19;;;15.13
32039;BMP280;18549;42.286;22.688;2023-04-03T10:37:48;94735.00;;;15.14
32039;BMP280;18549;42.286;22.688;2023-04-03T10:40:24;94735.91;;;15.13
32039;BMP280;18549;42.286;22.688;2023-04-03T10:43:04;94741.97;;;15.10
32039;BMP280;18549;42.286;22.688;2023-04-03T10:45:48;94736.41;;;15.16
32039;BMP280;18549;42.286;22.688;2023-04-03T10:48:18;94739.41;;;15.19
32039;BMP280;18549;42.286;22.688;2023-04-03T10:50:57;94737.53;;;15.21
32039;BMP280;18549;42.286;22.688;2023-04-03T10:53:29;94735.81;;;15.22
32039;BMP280;18549;42.286;22.688;2023-04-03T10:56:03;94730.25;;;15.28
32039;BMP280;18549;42.286;22.688;2023-04-03T10:58:35;94732.47;;;15.31
32039;BMP280;18549;42.286;22.688;2023-04-03T11:01:07;94734.19;;;15.30
32039;BMP280;18549;42.286;22.688;2023-04-03T11:03:36;94731.38;;;15.33
32039;BMP280;18549;42.286;22.688;2023-04-03T11:06:09;94732.97;;;15.34
32039;BMP280;18549;42.286;22.688;2023-04-03T11:08:43;94731.00;;;15.20
32039;BMP280;18549;42.286;22.688;2023-04-03T11:11:14;94722.22;;;15.17
32039;BMP280;18549;42.286;22.688;2023-04-03T11:13:46;94721.88;;;15.12
32039;BMP280;18549;42.286;22.688;2023-04-03T11:16:23;94721.63;;;15.05
32039;BMP280;18549;42.286;22.688;2023-04-03T11:18:54;94719.69;;;14.99
32039;BMP280;18549;42.286;22.688;2023-04-03T11:21:24;94714.44;;;15.02
32039;BMP280;18549;42.286;22.688;2023-04-03T11:23:56;94714.91;;;15.06
32039;BMP280;18549;42.286;22.688;2023-04-03T11:26:27;94715.69;;;15.06
32039;BMP280;18549;42.286;22.688;2023-04-03T11:28:58;94682.34;;;15.07
32039;BMP280;18549;42.286;22.688;2023-04-03T11:31:37;94703.69;;;15.02
32039;BMP280;18549;42.286;22.688;2023-04-03T11:34:19;94706.88;;;14.94
32039;BMP280;18549;42.286;22.688;2023-04-03T11:36:49;94707.91;;;14.84
32039;BMP280;18549;42.286;22.688;2023-04-03T11:39:22;94704.69;;;14.91
32039;BMP280;18549;42.286;22.688;2023-04-03T11:41:51;94704.31;;;14.86
32039;BMP280;18549;42.286;22.688;2023-04-03T11:44:34;94707.31;;;14.90
32039;BMP280;18549;42.286;22.688;2023-04-03T11:47:05;94704.03;;;14.89
32039;BMP280;18549;42.286;22.688;2023-04-03T11:49:52;94707.31;;;14.90
32039;BMP280;18549;42.286;22.688;2023-04-03T11:52:57;94715.44;;;14.75
32039;BMP280;18549;42.286;22.688;2023-04-03T11:58:29;94695.97;;;14.78
32039;BMP280;18549;42.286;22.688;2023-04-03T12:01:06;94687.44;;;14.81
32039;BMP280;18549;42.286;22.688;2023-04-03T12:07:03;94677.44;;;14.81
32039;BMP280;18549;42.286;22.688;2023-04-03T12:10:13;94675.72;;;14.81
32039;BMP280;18549;42.286;22.688;2023-04-03T12:12:43;94672.31;;;14.82
32039;BMP280;18549;42.286;22.688;2023-04-03T12:15:50;94664.72;;;14.84
32039;BMP280;18549;42.286;22.688;2023-04-03T12:21:18;94663.63;;;14.86
32039;BMP280;18549;42.286;22.688;2023-04-03T12:24:13;94660.63;;;14.83
32039;BMP280;18549;42.286;22.688;2023-04-03T12:27:01;94653.59;;;14.78
32039;BMP280;18549;42.286;22.688;2023-04-03T12:29:33;94651.37;;;14.75
32039;BMP280;18549;42.286;22.688;2023-04-03T12:32:10;94649.19;;;14.72
32039;BMP280;18549;42.286;22.688;2023-04-03T12:34:48;94639.81;;;14.74
32039;BMP280;18549;42.286;22.688;2023-04-03T12:37:23;94643.25;;;14.73
32039;BMP280;18549;42.286;22.688;2023-04-03T12:40:09;94639.47;;;14.69
32039;BMP280;18549;42.286;22.688;2023-04-03T12:42:56;94633.38;;;14.64
32039;BMP280;18549;42.286;22.688;2023-04-03T12:45:40;94635.91;;;14.37
32039;BMP280;18549;42.286;22.688;2023-04-03T12:48:13;94638.56;;;14.36
32039;BMP280;18549;42.286;22.688;2023-04-03T12:50:41;94625.19;;;14.37
32039;BMP280;18549;42.286;22.688;2023-04-03T12:53:13;94614.66;;;14.43
32039;BMP280;18549;42.286;22.688;2023-04-03T12:55:42;94611.09;;;14.45
32039;BMP280;18549;42.286;22.688;2023-04-03T12:58:16;94613.16;;;14.50
32039;BMP280;18549;42.286;22.688;2023-04-03T13:00:43;94615.66;;;14.50
32039;BMP280;18549;42.286;22.688;2023-04-03T13:03:22;94617.19;;;14.51
32039;BMP280;18549;42.286;22.688;2023-04-03T13:05:50;94617.19;;;14.51
32039;BMP280;18549;42.286;22.688;2023-04-03T13:08:17;94624.38;;;14.53
32039;BMP280;18549;42.286;22.688;2023-04-03T13:10:54;94617.72;;;14.54
32039;BMP280;18549;42.286;22.688;2023-04-03T13:13:22;94617.19;;;14.51
32039;BMP280;18549;42.286;22.688;2023-04-03T13:15:50;94613.56;;;14.45
32039;BMP280;18549;42.286;22.688;2023-04-03T13:18:27;94621.97;;;14.44
32039;BMP280;18549;42.286;22.688;2023-04-03T13:20:57;94615.28;;;14.45
32039;BMP280;18549;42.286;22.688;2023-04-03T13:23:26;94614.28;;;14.38
32039;BMP280;18549;42.286;22.688;2023-04-03T13:25:54;94616.22;;;14.26
32039;BMP280;18549;42.286;22.688;2023-04-03T13:28:26;94616.22;;;14.26
32039;BMP280;18549;42.286;22.688;2023-04-03T13:30:59;94621.81;;;14.28
32039;BMP280;18549;42.286;22.688;2023-04-03T13:33:29;94624.81;;;14.32
32039;BMP280;18549;42.286;22.688;2023-04-03T13:36:02;94632.38;;;14.22
32039;BMP280;18549;42.286;22.688;2023-04-03T13:38:30;94630.00;;;14.21
32039;BMP280;18549;42.286;22.688;2023-04-03T13:41:01;94612.56;;;14.21
32039;BMP280;18549;42.286;22.688;2023-04-03T13:43:31;94613.34;;;14.21
32039;BMP280;18549;42.286;22.688;2023-04-03T13:46:02;94603.75;;;14.26
32039;BMP280;18549;42.286;22.688;2023-04-03T13:48:36;94612.41;;;14.05
32039;BMP280;18549;42.286;22.688;2023-04-03T13:51:05;94606.44;;;14.16
32039;BMP280;18549;42.286;22.688;2023-04-03T13:53:34;94602.59;;;14.21
32039;BMP280;18549;42.286;22.688;2023-04-03T13:56:17;94594.81;;;14.24
32039;BMP280;18549;42.286;22.688;2023-04-03T13:58:56;94586.34;;;14.17
32039;BMP280;18549;42.286;22.688;2023-04-03T14:01:24;94596.06;;;13.93
32039;BMP280;18549;42.286;22.688;2023-04-03T14:03:55;94594.22;;;13.95
32039;BMP280;18549;42.286;22.688;2023-04-03T14:06:23;94585.75;;;13.88
32039;BMP280;18549;42.286;22.688;2023-04-03T14:08:50;94582.06;;;13.92
32039;BMP280;18549;42.286;22.688;2023-04-03T14:11:21;94581.37;;;14.00
32039;BMP280;18549;42.286;22.688;2023-04-03T14:13:50;94568.50;;;14.04
32039;BMP280;18549;42.286;22.688;2023-04-03T14:16:19;94567.44;;;14.07
32039;BMP280;18549;42.286;22.688;2023-04-03T14:18:47;94564.50;;;14.11
32039;BMP280;18549;42.286;22.688;2023-04-03T14:21:16;94569.34;;;14.13
32039;BMP280;18549;42.286;22.688;2023-04-03T14:23:43;94565.00;;;14.15
32039;BMP280;18549;42.286;22.688;2023-04-03T14:26:12;94562.41;;;13.89